createdAt,value
2019-05-06T00:00:09.483Z,1012.56
2019-05-06T00:01:09.463Z,1012.59
2019-05-06T00:02:09.473Z,1012.58
2019-05-06T00:03:09.436Z,1012.58
2019-05-06T00:04:09.427Z,1012.62
2019-05-06T00:05:09.423Z,1012.61
2019-05-06T00:06:09.417Z,1012.66
2019-05-06T00:07:09.414Z,1012.58
2019-05-06T00:08:09.385Z,1012.60
2019-05-06T00:09:09.377Z,1012.64
2019-05-06T00:10:09.366Z,1012.60
2019-05-06T00:11:09.355Z,1012.62
2019-05-06T00:12:09.362Z,1012.64
2019-05-06T00:13:09.333Z,1012.61
2019-05-06T00:14:09.319Z,1012.59
2019-05-06T00:15:09.320Z,1012.63
2019-05-06T00:16:09.296Z,1012.59
2019-05-06T00:17:09.319Z,1012.57
2019-05-06T00:18:09.279Z,1012.60
2019-05-06T00:19:09.262Z,1012.57
2019-05-06T00:20:09.251Z,1012.56
2019-05-06T00:21:09.267Z,1012.57
2019-05-06T00:22:09.245Z,1012.57
2019-05-06T00:23:09.254Z,1012.55
2019-05-06T00:24:09.210Z,1012.57
2019-05-06T00:25:09.195Z,1012.59
2019-05-06T00:26:09.181Z,1012.61
2019-05-06T00:27:09.207Z,1012.56
2019-05-06T00:28:09.183Z,1012.56
2019-05-06T00:29:09.151Z,1012.58
2019-05-06T00:30:09.143Z,1012.59
2019-05-06T00:31:13.093Z,1012.61
2019-05-06T00:32:09.114Z,1012.57
2019-05-06T00:33:09.138Z,1012.59
2019-05-06T00:34:09.103Z,1012.59
2019-05-06T00:35:09.085Z,1012.60
2019-05-06T00:36:09.072Z,1012.61
2019-05-06T00:37:09.065Z,1012.60
2019-05-06T00:38:09.080Z,1012.59
2019-05-06T00:39:09.047Z,1012.62
2019-05-06T00:40:09.034Z,1012.60
2019-05-06T00:41:09.025Z,1012.60
2019-05-06T00:42:09.011Z,1012.61
2019-05-06T00:43:09.009Z,1012.61
2019-05-06T00:44:08.981Z,1012.64
2019-05-06T00:45:08.979Z,1012.62
2019-05-06T00:46:08.970Z,1012.60
2019-05-06T00:47:08.964Z,1012.61
2019-05-06T00:48:08.955Z,1012.64
2019-05-06T00:49:08.928Z,1012.59
2019-05-06T00:50:08.923Z,1012.62
2019-05-06T00:51:08.921Z,1012.62
2019-05-06T00:52:08.906Z,1012.58
2019-05-06T00:53:08.927Z,1012.55
2019-05-06T00:54:08.871Z,1012.60
2019-05-06T00:55:08.859Z,1012.56
2019-05-06T00:56:08.856Z,1012.54
2019-05-06T00:57:08.851Z,1012.54
2019-05-06T00:58:08.863Z,1012.51
2019-05-06T00:59:08.819Z,1012.54
2019-05-06T01:00:08.817Z,1012.56
2019-05-06T01:01:08.796Z,1012.58
2019-05-06T01:02:08.785Z,1012.59
2019-05-06T01:03:08.803Z,1012.59
2019-05-06T01:04:08.767Z,1012.63
2019-05-06T01:05:08.747Z,1012.63
2019-05-06T01:06:08.743Z,1012.63
2019-05-06T01:07:08.738Z,1012.63
2019-05-06T01:08:08.752Z,1012.66
2019-05-06T01:09:08.717Z,1012.65
2019-05-06T01:10:08.697Z,1012.65
2019-05-06T01:11:08.682Z,1012.62
2019-05-06T01:12:08.673Z,1012.70
2019-05-06T01:13:08.663Z,1012.67
2019-05-06T01:14:08.676Z,1012.71
2019-05-06T01:15:08.646Z,1012.68
2019-05-06T01:16:08.629Z,1012.65
2019-05-06T01:17:08.619Z,1012.68
2019-05-06T01:18:08.639Z,1012.72
2019-05-06T01:19:08.619Z,1012.66
2019-05-06T01:20:08.584Z,1012.69
2019-05-06T01:21:08.571Z,1012.71
2019-05-06T01:22:08.566Z,1012.68
2019-05-06T01:23:08.552Z,1012.74
2019-05-06T01:24:08.560Z,1012.75
2019-05-06T01:25:08.532Z,1012.73
2019-05-06T01:26:08.535Z,1012.73
2019-05-06T01:27:08.526Z,1012.76
2019-05-06T01:28:08.501Z,1012.77
2019-05-06T01:29:08.505Z,1012.79
2019-05-06T01:30:08.487Z,1012.76
2019-05-06T01:31:08.462Z,1012.76
2019-05-06T01:32:08.457Z,1012.76
2019-05-06T01:33:08.436Z,1012.76
2019-05-06T01:34:08.450Z,1012.79
2019-05-06T01:35:08.433Z,1012.79
2019-05-06T01:36:08.423Z,1012.76
2019-05-06T01:37:08.435Z,1012.81
2019-05-06T01:38:09.289Z,1012.77
2019-05-06T01:39:08.401Z,1012.84
2019-05-06T01:40:08.377Z,1012.84
2019-05-06T01:41:08.354Z,1012.85
2019-05-06T01:42:08.340Z,1012.85
2019-05-06T01:43:08.338Z,1012.87
2019-05-06T01:44:08.350Z,1012.89
2019-05-06T01:45:08.311Z,1012.90
2019-05-06T01:46:08.303Z,1012.89
2019-05-06T01:47:08.293Z,1012.88
2019-05-06T01:48:08.274Z,1012.91
2019-05-06T01:49:08.298Z,1012.90
2019-05-06T01:50:08.251Z,1012.94
2019-05-06T01:51:08.239Z,1012.91
2019-05-06T01:52:08.235Z,1012.94
2019-05-06T01:53:08.230Z,1012.92
2019-05-06T01:54:08.207Z,1012.91
2019-05-06T01:55:08.209Z,1012.87
2019-05-06T01:56:08.184Z,1012.92
2019-05-06T01:57:08.180Z,1012.88
2019-05-06T01:58:08.164Z,1012.89
2019-05-06T01:59:08.158Z,1012.87
2019-05-06T02:00:08.155Z,1012.95
2019-05-06T02:01:08.147Z,1012.91
2019-05-06T02:02:08.115Z,1012.93
2019-05-06T02:03:08.107Z,1012.92
2019-05-06T02:04:08.105Z,1012.93
2019-05-06T02:05:08.111Z,1012.97
2019-05-06T02:06:08.078Z,1012.98
2019-05-06T02:07:08.075Z,1012.94
2019-05-06T02:08:08.058Z,1012.96
2019-05-06T02:09:08.053Z,1012.97
2019-05-06T02:10:08.059Z,1012.99
2019-05-06T02:11:08.024Z,1012.97
2019-05-06T02:12:08.008Z,1012.94
2019-05-06T02:13:07.998Z,1012.99
2019-05-06T02:14:08.006Z,1012.99
2019-05-06T02:15:07.992Z,1012.99
2019-05-06T02:16:07.967Z,1012.98
2019-05-06T02:17:07.952Z,1012.97
2019-05-06T02:18:07.954Z,1012.98
2019-05-06T02:19:07.926Z,1012.97
2019-05-06T02:20:07.958Z,1012.96
2019-05-06T02:21:07.907Z,1012.99
2019-05-06T02:22:07.908Z,1012.98
2019-05-06T02:23:07.890Z,1013.01
2019-05-06T02:24:07.881Z,1012.99
2019-05-06T02:25:07.886Z,1012.99
2019-05-06T02:26:07.855Z,1013.02
2019-05-06T02:27:07.838Z,1012.99
2019-05-06T02:28:07.829Z,1012.96
2019-05-06T02:29:07.823Z,1012.96
2019-05-06T02:30:07.829Z,1012.98
2019-05-06T02:31:07.813Z,1013.02
2019-05-06T02:32:20.918Z,1012.98
2019-05-06T02:33:08.771Z,1012.99
2019-05-06T02:34:07.813Z,1012.99
2019-05-06T02:35:07.868Z,1012.99
2019-05-06T02:36:07.787Z,1012.96
2019-05-06T02:37:07.736Z,1012.95
2019-05-06T02:38:07.721Z,1012.94
2019-05-06T02:39:07.720Z,1012.97
2019-05-06T02:40:07.700Z,1012.89
2019-05-06T02:41:07.704Z,1012.93
2019-05-06T02:42:07.682Z,1012.91
2019-05-06T02:43:07.669Z,1012.87
2019-05-06T02:44:10.202Z,1012.94
2019-05-06T02:45:08.647Z,1012.98
2019-05-06T02:46:07.651Z,1012.98
2019-05-06T02:47:07.636Z,1013.00
2019-05-06T02:48:07.610Z,1013.03
2019-05-06T02:49:07.597Z,1013.01
2019-05-06T02:50:07.588Z,1013.02
2019-05-06T02:51:07.593Z,1013.01
2019-05-06T02:52:07.578Z,1013.02
2019-05-06T02:53:07.550Z,1013.05
2019-05-06T02:54:07.549Z,1013.05
2019-05-06T02:55:07.529Z,1013.05
2019-05-06T02:56:07.537Z,1013.04
2019-05-06T02:57:07.504Z,1013.08
2019-05-06T02:58:07.508Z,1013.06
2019-05-06T02:59:07.495Z,1013.06
2019-05-06T03:00:07.484Z,1013.06
2019-05-06T03:01:07.499Z,1013.07
2019-05-06T03:02:07.463Z,1013.08
2019-05-06T03:03:07.440Z,1013.08
2019-05-06T03:04:07.441Z,1013.07
2019-05-06T03:05:07.429Z,1013.05
2019-05-06T03:06:07.430Z,1013.09
2019-05-06T03:07:07.429Z,1013.18
2019-05-06T03:08:07.392Z,1013.17
2019-05-06T03:09:07.376Z,1013.19
2019-05-06T03:10:07.371Z,1013.16
2019-05-06T03:11:07.403Z,1013.22
2019-05-06T03:12:07.337Z,1013.18
2019-05-06T03:13:07.336Z,1013.23
2019-05-06T03:14:07.321Z,1013.18
2019-05-06T03:15:07.325Z,1013.15
2019-05-06T03:16:07.323Z,1013.16
2019-05-06T03:17:07.381Z,1013.14
2019-05-06T03:18:07.274Z,1013.16
2019-05-06T03:19:07.270Z,1013.19
2019-05-06T03:20:07.258Z,1013.10
2019-05-06T03:21:07.279Z,1013.16
2019-05-06T03:22:07.257Z,1013.18
2019-05-06T03:23:07.216Z,1013.17
2019-05-06T03:24:07.580Z,1013.18
2019-05-06T03:25:07.244Z,1013.21
2019-05-06T03:26:07.265Z,1013.23
2019-05-06T03:27:07.204Z,1013.20
2019-05-06T03:28:07.218Z,1013.21
2019-05-06T03:29:07.149Z,1013.20
2019-05-06T03:30:07.150Z,1013.24
2019-05-06T03:31:08.108Z,1013.22
2019-05-06T03:32:07.920Z,1013.21
2019-05-06T03:33:37.951Z,1013.22
2019-05-06T03:34:35.575Z,1013.28
2019-05-06T03:35:31.598Z,1013.24
2019-05-06T03:36:22.878Z,1013.24
2019-05-06T03:37:08.652Z,1013.24
2019-05-06T03:38:07.063Z,1013.24
2019-05-06T03:39:07.055Z,1013.26
2019-05-06T03:40:07.025Z,1013.24
2019-05-06T03:41:07.024Z,1013.20
2019-05-06T03:42:07.381Z,1013.27
2019-05-06T03:43:07.009Z,1013.26
2019-05-06T03:44:07.002Z,1013.25
2019-05-06T03:45:06.986Z,1013.25
2019-05-06T03:46:06.965Z,1013.22
2019-05-06T03:47:06.973Z,1013.25
2019-05-06T03:48:06.942Z,1013.20
2019-05-06T03:49:06.935Z,1013.23
2019-05-06T03:50:06.941Z,1013.29
2019-05-06T03:51:06.904Z,1013.24
2019-05-06T03:52:06.930Z,1013.28
2019-05-06T03:53:06.885Z,1013.27
2019-05-06T03:54:06.884Z,1013.27
2019-05-06T03:55:06.875Z,1013.29
2019-05-06T03:56:06.868Z,1013.30
2019-05-06T03:57:06.871Z,1013.28
2019-05-06T03:58:06.827Z,1013.30
2019-05-06T03:59:06.816Z,1013.27
2019-05-06T04:00:06.827Z,1013.33
2019-05-06T04:01:06.805Z,1013.31
2019-05-06T04:02:06.828Z,1013.31
2019-05-06T04:03:06.778Z,1013.28
2019-05-06T04:04:06.765Z,1013.29
2019-05-06T04:05:06.762Z,1013.30
2019-05-06T04:06:06.751Z,1013.29
2019-05-06T04:07:06.761Z,1013.29
2019-05-06T04:08:06.731Z,1013.30
2019-05-06T04:09:06.713Z,1013.33
2019-05-06T04:10:06.705Z,1013.30
2019-05-06T04:11:06.712Z,1013.32
2019-05-06T04:12:06.718Z,1013.30
2019-05-06T04:13:06.668Z,1013.32
2019-05-06T04:14:06.655Z,1013.34
2019-05-06T04:15:06.683Z,1013.33
2019-05-06T04:16:06.630Z,1013.36
2019-05-06T04:17:07.404Z,1013.36
2019-05-06T04:18:06.642Z,1013.39
2019-05-06T04:19:06.607Z,1013.40
2019-05-06T04:20:06.584Z,1013.39
2019-05-06T04:21:09.003Z,1013.40
2019-05-06T04:22:06.564Z,1013.47
2019-05-06T04:23:06.845Z,1013.48
2019-05-06T04:24:06.570Z,1013.47
2019-05-06T04:25:06.570Z,1013.51
2019-05-06T04:26:06.518Z,1013.47
2019-05-06T04:27:06.514Z,1013.52
2019-05-06T04:28:06.515Z,1013.52
2019-05-06T04:29:06.493Z,1013.53
2019-05-06T04:30:06.490Z,1013.55
2019-05-06T04:31:06.482Z,1013.52
2019-05-06T04:32:06.457Z,1013.54
2019-05-06T04:33:06.465Z,1013.58
2019-05-06T04:34:13.873Z,1013.56
2019-05-06T04:35:07.427Z,1013.60
2019-05-06T04:36:06.423Z,1013.64
2019-05-06T04:37:06.397Z,1013.62
2019-05-06T04:38:06.418Z,1013.61
2019-05-06T04:39:06.381Z,1013.59
2019-05-06T04:40:06.367Z,1013.58
2019-05-06T04:41:06.357Z,1013.61
2019-05-06T04:42:09.381Z,1013.63
2019-05-06T04:43:06.368Z,1013.60
2019-05-06T04:44:06.321Z,1013.62
2019-05-06T04:45:06.322Z,1013.61
2019-05-06T04:46:06.306Z,1013.63
2019-05-06T04:47:06.299Z,1013.62
2019-05-06T04:48:06.304Z,1013.62
2019-05-06T04:49:10.512Z,1013.64
2019-05-06T04:50:07.260Z,1013.68
2019-05-06T04:51:06.247Z,1013.67
2019-05-06T04:52:06.247Z,1013.70
2019-05-06T04:53:06.253Z,1013.70
2019-05-06T04:54:06.227Z,1013.65
2019-05-06T04:55:06.225Z,1013.66
2019-05-06T04:56:06.185Z,1013.68
2019-05-06T04:57:06.187Z,1013.68
2019-05-06T04:58:06.191Z,1013.69
2019-05-06T04:59:06.545Z,1013.64
2019-05-06T05:00:06.148Z,1013.67
2019-05-06T05:01:06.135Z,1013.65
2019-05-06T05:02:06.129Z,1013.71
2019-05-06T05:03:06.146Z,1013.69
2019-05-06T05:04:23.079Z,1013.67
2019-05-06T05:05:07.104Z,1013.62
2019-05-06T05:06:06.112Z,1013.71
2019-05-06T05:07:06.076Z,1013.71
2019-05-06T05:08:06.059Z,1013.67
2019-05-06T05:09:06.069Z,1013.73
2019-05-06T05:10:06.053Z,1013.75
2019-05-06T05:11:06.026Z,1013.75
2019-05-06T05:12:06.013Z,1013.73
2019-05-06T05:13:06.004Z,1013.73
2019-05-06T05:14:06.011Z,1013.74
2019-05-06T05:15:05.990Z,1013.70
2019-05-06T05:16:05.993Z,1013.73
2019-05-06T05:17:05.962Z,1013.71
2019-05-06T05:18:05.947Z,1013.73
2019-05-06T05:19:05.955Z,1013.68
2019-05-06T05:20:05.928Z,1013.67
2019-05-06T05:21:05.929Z,1013.70
2019-05-06T05:22:05.903Z,1013.68
2019-05-06T05:23:05.899Z,1013.68
2019-05-06T05:24:05.913Z,1013.68
2019-05-06T05:25:05.866Z,1013.71
2019-05-06T05:26:05.866Z,1013.64
2019-05-06T05:27:05.840Z,1013.70
2019-05-06T05:28:05.829Z,1013.65
2019-05-06T05:29:05.847Z,1013.65
2019-05-06T05:30:05.814Z,1013.61
2019-05-06T05:31:05.805Z,1013.66
2019-05-06T05:32:05.796Z,1013.62
2019-05-06T05:33:05.775Z,1013.69
2019-05-06T05:34:05.783Z,1013.64
2019-05-06T05:35:05.757Z,1013.63
2019-05-06T05:36:05.745Z,1013.60
2019-05-06T05:37:05.734Z,1013.56
2019-05-06T05:38:05.743Z,1013.59
2019-05-06T05:39:05.751Z,1013.60
2019-05-06T05:40:05.713Z,1013.66
2019-05-06T05:41:05.693Z,1013.63
2019-05-06T05:42:05.675Z,1013.65
2019-05-06T05:43:05.676Z,1013.63
2019-05-06T05:44:05.684Z,1013.66
2019-05-06T05:45:05.699Z,1013.64
2019-05-06T05:46:05.642Z,1013.66
2019-05-06T05:47:05.624Z,1013.68
2019-05-06T05:48:05.608Z,1013.71
2019-05-06T05:49:05.621Z,1013.74
2019-05-06T05:50:05.586Z,1013.74
2019-05-06T05:51:05.581Z,1013.70
2019-05-06T05:52:05.580Z,1013.69
2019-05-06T05:53:05.553Z,1013.70
2019-05-06T05:54:05.567Z,1013.70
2019-05-06T05:55:05.553Z,1013.66
2019-05-06T05:56:05.519Z,1013.66
2019-05-06T05:57:05.515Z,1013.69
2019-05-06T05:58:05.509Z,1013.66
2019-05-06T05:59:05.527Z,1013.68
2019-05-06T06:00:05.489Z,1013.65
2019-05-06T06:01:05.473Z,1013.70
2019-05-06T06:02:05.459Z,1013.71
2019-05-06T06:03:07.145Z,1013.69
2019-05-06T06:04:05.436Z,1013.71
2019-05-06T06:05:05.457Z,1013.73
2019-05-06T06:06:05.417Z,1013.73
2019-05-06T06:07:05.411Z,1013.78
2019-05-06T06:08:05.390Z,1013.76
2019-05-06T06:09:05.384Z,1013.77
2019-05-06T06:10:05.394Z,1013.76
2019-05-06T06:11:05.358Z,1013.78
2019-05-06T06:12:05.343Z,1013.77
2019-05-06T06:13:05.337Z,1013.74
2019-05-06T06:14:05.325Z,1013.77
2019-05-06T06:15:05.331Z,1013.74
2019-05-06T06:16:05.298Z,1013.76
2019-05-06T06:17:05.306Z,1013.79
2019-05-06T06:18:05.316Z,1013.77
2019-05-06T06:19:05.264Z,1013.79
2019-05-06T06:20:05.292Z,1013.76
2019-05-06T06:21:17.932Z,1013.75
2019-05-06T06:22:06.229Z,1013.72
2019-05-06T06:23:05.218Z,1013.67
2019-05-06T06:24:05.238Z,1013.71
2019-05-06T06:25:05.222Z,1013.66
2019-05-06T06:26:05.208Z,1013.62
2019-05-06T06:27:05.182Z,1013.65
2019-05-06T06:28:05.181Z,1013.61
2019-05-06T06:29:05.157Z,1013.65
2019-05-06T06:30:05.185Z,1013.66
2019-05-06T06:31:05.130Z,1013.66
2019-05-06T06:32:05.124Z,1013.64
2019-05-06T06:33:05.119Z,1013.63
2019-05-06T06:34:05.098Z,1013.64
2019-05-06T06:35:11.423Z,1013.60
2019-05-06T06:36:06.077Z,1013.66
2019-05-06T06:37:05.067Z,1013.60
2019-05-06T06:38:05.064Z,1013.61
2019-05-06T06:39:05.040Z,1013.62
2019-05-06T06:40:05.046Z,1013.67
2019-05-06T06:41:05.021Z,1013.68
2019-05-06T06:42:05.013Z,1013.65
2019-05-06T06:43:05.007Z,1013.62
2019-05-06T06:44:04.996Z,1013.73
2019-05-06T06:45:04.998Z,1013.66
2019-05-06T06:46:08.939Z,1013.71
2019-05-06T06:47:04.952Z,1013.72
2019-05-06T06:48:04.945Z,1013.73
2019-05-06T06:49:04.935Z,1013.72
2019-05-06T06:50:04.936Z,1013.74
2019-05-06T06:51:04.914Z,1013.74
2019-05-06T06:52:10.864Z,1013.71
2019-05-06T06:53:05.895Z,1013.76
2019-05-06T06:54:04.878Z,1013.72
2019-05-06T06:55:04.893Z,1013.70
2019-05-06T06:56:04.858Z,1013.72
2019-05-06T06:57:08.982Z,1013.74
2019-05-06T06:58:04.845Z,1013.71
2019-05-06T06:59:04.825Z,1013.74
2019-05-06T07:00:04.837Z,1013.70
2019-05-06T07:01:04.801Z,1013.69
2019-05-06T07:02:04.794Z,1013.71
2019-05-06T07:03:04.778Z,1013.71
2019-05-06T07:04:10.437Z,1013.71
2019-05-06T07:05:05.769Z,1013.63
2019-05-06T07:06:04.750Z,1013.68
2019-05-06T07:07:04.740Z,1013.65
2019-05-06T07:08:04.733Z,1013.64
2019-05-06T07:09:04.707Z,1013.66
2019-05-06T07:10:04.715Z,1013.66
2019-05-06T07:11:04.690Z,1013.66
2019-05-06T07:12:04.724Z,1013.67
2019-05-06T07:13:04.668Z,1013.68
2019-05-06T07:14:04.670Z,1013.71
2019-05-06T07:15:04.834Z,1013.70
2019-05-06T07:16:04.637Z,1013.70
2019-05-06T07:17:04.626Z,1013.68
2019-05-06T07:18:04.614Z,1013.73
2019-05-06T07:19:04.615Z,1013.68
2019-05-06T07:20:04.630Z,1013.70
2019-05-06T07:21:05.994Z,1013.71
2019-05-06T07:22:06.781Z,1013.67
2019-05-06T07:23:04.555Z,1013.64
2019-05-06T07:24:04.578Z,1013.64
2019-05-06T07:25:04.552Z,1013.56
2019-05-06T07:26:04.563Z,1013.61
2019-05-06T07:27:04.516Z,1013.62
2019-05-06T07:28:04.501Z,1013.67
2019-05-06T07:29:16.858Z,1013.62
2019-05-06T07:30:05.487Z,1013.62
2019-05-06T07:31:17.572Z,1013.62
2019-05-06T07:32:05.457Z,1013.64
2019-05-06T07:33:04.463Z,1013.55
2019-05-06T07:34:04.446Z,1013.56
2019-05-06T07:35:06.241Z,1013.63
2019-05-06T07:36:04.447Z,1013.60
2019-05-06T07:37:04.426Z,1013.67
2019-05-06T07:38:04.408Z,1013.61
2019-05-06T07:39:04.503Z,1013.65
2019-05-06T07:40:04.367Z,1013.65
2019-05-06T07:41:04.985Z,1013.67
2019-05-06T07:42:04.363Z,1013.60
2019-05-06T07:43:04.348Z,1013.60
2019-05-06T07:44:04.329Z,1013.63
2019-05-06T07:45:06.575Z,1013.60
2019-05-06T07:46:04.325Z,1013.60
2019-05-06T07:47:04.303Z,1013.52
2019-05-06T07:48:04.279Z,1013.58
2019-05-06T07:49:04.270Z,1013.57
2019-05-06T07:50:04.295Z,1013.59
2019-05-06T07:51:04.270Z,1013.57
2019-05-06T07:52:04.245Z,1013.55
2019-05-06T07:53:04.241Z,1013.59
2019-05-06T07:54:04.219Z,1013.56
2019-05-06T07:55:04.209Z,1013.57
2019-05-06T07:56:04.215Z,1013.66
2019-05-06T07:57:04.175Z,1013.57
2019-05-06T07:58:04.182Z,1013.55
2019-05-06T07:59:04.165Z,1013.48
2019-05-06T08:00:04.169Z,1013.49
2019-05-06T08:01:04.166Z,1013.59
2019-05-06T08:02:04.141Z,1013.55
2019-05-06T08:03:04.124Z,1013.52
2019-05-06T08:04:04.132Z,1013.52
2019-05-06T08:05:07.424Z,1013.50
2019-05-06T08:06:04.121Z,1013.42
2019-05-06T08:07:04.063Z,1013.48
2019-05-06T08:08:04.063Z,1013.48
2019-05-06T08:09:04.087Z,1013.47
2019-05-06T08:10:04.050Z,1013.46
2019-05-06T08:11:04.051Z,1013.42
2019-05-06T08:12:04.041Z,1013.45
2019-05-06T08:13:04.018Z,1013.41
2019-05-06T08:14:04.006Z,1013.41
2019-05-06T08:15:05.704Z,1013.46
2019-05-06T08:16:04.087Z,1013.37
2019-05-06T08:17:04.002Z,1013.35
2019-05-06T08:18:03.980Z,1013.44
2019-05-06T08:19:03.948Z,1013.45
2019-05-06T08:20:03.943Z,1013.44
2019-05-06T08:21:03.976Z,1013.48
2019-05-06T08:22:03.942Z,1013.52
2019-05-06T08:23:03.912Z,1013.45
2019-05-06T08:24:03.884Z,1013.41
2019-05-06T08:25:03.874Z,1013.47
2019-05-06T08:26:11.996Z,1013.60
2019-05-06T08:27:04.885Z,1013.49
2019-05-06T08:28:03.898Z,1013.48
2019-05-06T08:29:03.828Z,1013.50
2019-05-06T08:30:03.815Z,1013.44
2019-05-06T08:32:04.888Z,1013.56
2019-05-06T08:33:03.800Z,1013.55
2019-05-06T08:34:03.788Z,1013.52
2019-05-06T08:35:03.851Z,1013.55
2019-05-06T08:36:11.546Z,1013.55
2019-05-06T08:37:04.775Z,1013.54
2019-05-06T08:38:03.726Z,1013.51
2019-05-06T08:39:03.725Z,1013.49
2019-05-06T08:40:03.719Z,1013.52
2019-05-06T08:41:03.735Z,1013.43
2019-05-06T08:42:03.697Z,1013.39
2019-05-06T08:43:03.684Z,1013.61
2019-05-06T08:44:03.689Z,1013.57
2019-05-06T08:45:06.908Z,1013.60
2019-05-06T08:46:03.653Z,1013.46
2019-05-06T08:47:03.675Z,1013.50
2019-05-06T08:48:03.625Z,1013.51
2019-05-06T08:49:03.642Z,1013.46
2019-05-06T08:50:03.600Z,1013.41
2019-05-06T08:51:03.604Z,1013.45
2019-05-06T08:52:03.598Z,1013.42
2019-05-06T08:53:05.129Z,1013.48
2019-05-06T08:54:03.556Z,1013.53
2019-05-06T08:55:04.892Z,1013.50
2019-05-06T08:56:03.542Z,1013.49
2019-05-06T08:57:03.611Z,1013.44
2019-05-06T08:58:03.525Z,1013.48
2019-05-06T08:59:03.493Z,1013.45
2019-05-06T09:00:03.653Z,1013.45
2019-05-06T09:01:03.529Z,1013.37
2019-05-06T09:02:03.490Z,1013.35
2019-05-06T09:03:04.277Z,1013.34
2019-05-06T09:04:11.418Z,1013.35
2019-05-06T09:05:04.417Z,1013.31
2019-05-06T09:06:03.430Z,1013.30
2019-05-06T09:07:03.439Z,1013.37
2019-05-06T09:08:03.959Z,1013.36
2019-05-06T09:09:03.395Z,1013.40
2019-05-06T09:10:03.372Z,1013.38
2019-05-06T09:11:03.365Z,1013.38
2019-05-06T09:12:03.377Z,1013.40
2019-05-06T09:13:03.361Z,1013.45
2019-05-06T09:14:03.627Z,1013.44
2019-05-06T09:15:03.721Z,1013.42
2019-05-06T09:16:03.307Z,1013.50
2019-05-06T09:17:03.373Z,1013.41
2019-05-06T09:18:03.303Z,1013.40
2019-05-06T09:19:04.516Z,1013.34
2019-05-06T09:20:03.293Z,1013.46
2019-05-06T09:21:03.246Z,1013.35
2019-05-06T09:22:03.255Z,1013.39
2019-05-06T09:23:04.485Z,1013.44
2019-05-06T09:24:03.220Z,1013.33
2019-05-06T09:25:03.222Z,1013.39
2019-05-06T09:26:03.201Z,1013.37
2019-05-06T09:27:03.213Z,1013.39
2019-05-06T09:28:03.170Z,1013.42
2019-05-06T09:29:03.159Z,1013.46
2019-05-06T09:30:03.184Z,1013.37
2019-05-06T09:31:03.153Z,1013.33
2019-05-06T09:32:03.145Z,1013.33
2019-05-06T09:33:03.115Z,1013.34
2019-05-06T09:34:03.112Z,1013.29
2019-05-06T09:35:03.149Z,1013.29
2019-05-06T09:36:03.477Z,1013.26
2019-05-06T09:37:03.713Z,1013.25
2019-05-06T09:38:03.069Z,1013.26
2019-05-06T09:39:03.067Z,1013.21
2019-05-06T09:40:03.151Z,1013.25
2019-05-06T09:41:05.020Z,1013.23
2019-05-06T09:42:03.030Z,1013.28
2019-05-06T09:43:04.729Z,1013.25
2019-05-06T09:44:03.203Z,1013.23
2019-05-06T09:45:02.988Z,1013.28
2019-05-06T09:46:02.970Z,1013.22
2019-05-06T09:47:02.972Z,1013.27
2019-05-06T09:48:03.871Z,1013.18
2019-05-06T09:49:03.413Z,1013.18
2019-05-06T09:50:03.012Z,1013.18
2019-05-06T09:51:03.055Z,1013.18
2019-05-06T09:52:02.931Z,1013.11
2019-05-06T09:53:02.897Z,1013.15
2019-05-06T09:54:04.055Z,1013.15
2019-05-06T09:55:03.427Z,1013.14
2019-05-06T09:56:03.488Z,1013.19
2019-05-06T09:57:02.911Z,1013.14
2019-05-06T09:58:03.437Z,1013.06
2019-05-06T09:59:02.827Z,1013.15
2019-05-06T10:00:04.753Z,1013.15
2019-05-06T10:01:02.847Z,1013.19
2019-05-06T10:02:03.001Z,1013.21
2019-05-06T10:03:03.356Z,1013.21
2019-05-06T10:04:03.319Z,1013.21
2019-05-06T10:05:03.557Z,1013.22
2019-05-06T10:06:02.904Z,1013.27
2019-05-06T10:07:02.822Z,1013.19
2019-05-06T10:08:03.297Z,1013.09
2019-05-06T10:09:04.695Z,1013.06
2019-05-06T10:10:02.711Z,1013.13
2019-05-06T10:11:03.296Z,1013.11
2019-05-06T10:12:02.731Z,1013.12
2019-05-06T10:13:02.928Z,1013.05
2019-05-06T10:14:03.053Z,1013.12
2019-05-06T10:15:03.309Z,1013.07
2019-05-06T10:16:03.112Z,1013.16
2019-05-06T10:17:04.459Z,1013.12
2019-05-06T10:18:04.461Z,1013.12
2019-05-06T10:19:02.645Z,1013.07
2019-05-06T10:20:03.080Z,1013.07
2019-05-06T10:21:02.585Z,1013.02
2019-05-06T10:22:03.553Z,1013.06
2019-05-06T10:23:02.875Z,1013.05
2019-05-06T10:24:02.552Z,1013.02
2019-05-06T10:25:03.763Z,1013.08
2019-05-06T10:26:04.646Z,1013.37
2019-05-06T10:27:02.700Z,1013.37
2019-05-06T10:28:02.863Z,1013.03
2019-05-06T10:29:02.583Z,1013.01
2019-05-06T10:30:03.302Z,1013.01
2019-05-06T10:31:02.473Z,1012.96
2019-05-06T10:32:02.482Z,1012.92
2019-05-06T10:33:02.458Z,1012.92
2019-05-06T10:34:03.001Z,1012.98
2019-05-06T10:35:02.926Z,1012.95
2019-05-06T10:36:02.588Z,1012.98
2019-05-06T10:37:12.782Z,1013.00
2019-05-06T10:38:03.396Z,1012.97
2019-05-06T10:39:02.435Z,1013.00
2019-05-06T10:40:03.285Z,1012.98
2019-05-06T10:41:06.709Z,1013.05
2019-05-06T10:42:03.407Z,1012.99
2019-05-06T10:43:02.775Z,1013.02
2019-05-06T10:44:02.995Z,1013.00
2019-05-06T10:45:02.320Z,1013.01
2019-05-06T10:46:04.119Z,1013.01
2019-05-06T10:47:02.962Z,1012.98
2019-05-06T10:48:02.502Z,1013.00
2019-05-06T10:49:02.672Z,1013.07
2019-05-06T10:50:02.349Z,1013.02
2019-05-06T10:51:03.546Z,1013.01
2019-05-06T10:52:02.344Z,1012.97
2019-05-06T10:53:02.836Z,1012.96
2019-05-06T10:54:03.173Z,1012.92
2019-05-06T10:55:03.382Z,1012.98
2019-05-06T10:56:02.430Z,1013.01
2019-05-06T10:57:02.362Z,1013.02
2019-05-06T10:58:02.764Z,1013.05
2019-05-06T10:59:02.537Z,1013.00
2019-05-06T11:00:02.154Z,1013.03
2019-05-06T11:01:03.610Z,1013.01
2019-05-06T11:02:05.219Z,1013.00
2019-05-06T11:03:02.136Z,1012.97
2019-05-06T11:04:02.836Z,1013.05
2019-05-06T11:05:02.809Z,1013.06
2019-05-06T11:06:02.567Z,1012.96
2019-05-06T11:07:04.070Z,1013.05
2019-05-06T11:08:02.366Z,1013.09
2019-05-06T11:09:03.232Z,1013.41
2019-05-06T11:10:02.720Z,1013.40
2019-05-06T11:11:14.797Z,1013.44
2019-05-06T11:12:03.392Z,1013.42
2019-05-06T11:13:03.423Z,1013.37
2019-05-06T11:14:03.056Z,1013.37
2019-05-06T11:15:03.431Z,1013.42
2019-05-06T11:16:03.370Z,1012.76
2019-05-06T11:17:04.873Z,1012.71
2019-05-06T11:18:04.587Z,1012.72
2019-05-06T11:19:02.111Z,1012.75
2019-05-06T11:20:06.250Z,1012.85
2019-05-06T11:21:03.533Z,1012.84
2019-05-06T11:22:03.666Z,1012.81
2019-05-06T11:23:02.199Z,1012.74
2019-05-06T11:24:06.006Z,1012.75
2019-05-06T11:25:03.225Z,1012.76
2019-05-06T11:26:03.082Z,1012.70
2019-05-06T11:27:03.484Z,1012.76
2019-05-06T11:28:02.993Z,1012.75
2019-05-06T11:29:05.232Z,1012.90
2019-05-06T11:30:02.398Z,1013.26
2019-05-06T11:31:02.542Z,1012.80
2019-05-06T11:32:02.412Z,1012.87
2019-05-06T11:33:04.342Z,1012.86
2019-05-06T11:34:01.778Z,1013.36
2019-05-06T11:35:03.692Z,1012.90
2019-05-06T11:36:01.748Z,1013.05
2019-05-06T11:37:01.733Z,1012.87
2019-05-06T11:38:01.758Z,1012.78
2019-05-06T11:39:01.711Z,1012.86
2019-05-06T11:40:01.703Z,1012.76
2019-05-06T11:41:01.693Z,1012.73
2019-05-06T11:42:23.734Z,1012.75
2019-05-06T11:43:02.689Z,1012.81
2019-05-06T11:44:01.651Z,1012.66
2019-05-06T11:45:03.148Z,1012.69
2019-05-06T11:46:01.784Z,1012.71
2019-05-06T11:47:03.392Z,1012.68
2019-05-06T11:48:01.629Z,1012.70
2019-05-06T11:49:01.644Z,1012.65
2019-05-06T11:50:02.481Z,1012.73
2019-05-06T11:51:01.602Z,1012.67
2019-05-06T11:52:02.339Z,1012.68
2019-05-06T11:53:02.427Z,1012.71
2019-05-06T11:54:04.411Z,1012.68
2019-05-06T11:55:02.603Z,1012.64
2019-05-06T11:56:02.176Z,1012.71
2019-05-06T11:57:02.974Z,1013.21
2019-05-06T11:58:02.591Z,1012.79
2019-05-06T11:59:02.441Z,1013.07
2019-05-06T12:00:03.089Z,1013.15
2019-05-06T12:01:02.747Z,1013.09
2019-05-06T12:02:02.515Z,1013.12
2019-05-06T12:03:02.382Z,1013.09
2019-05-06T12:04:02.723Z,1012.55
2019-05-06T12:05:02.311Z,1012.96
2019-05-06T12:06:03.681Z,1012.83